MET5691 - Baltimore to Boston

Embraer ERJ-170LR
N920AU
1 hr 15 mins
321 nm
Scheduled - Daily

Bid/PiRep Status

Bid was submitted on Jan 02 2017.

PiRep # 74602: Approved by Sean Doyle on January 5th, 2017 4:10 UTC

Departure

Departing from
Baltimore (BWI)
Departure gate
Scheduled Departure
GMT 1115
Local 0715
METAR KBWI 170254Z 00000KT 9SM FEW090 23/22 A3003 RMK AO2 SLP167 T02280217 51014
TAF KBWI 162343Z 1700/1806 08004KT P6SM SCT050 FM171100 00000KT P6SM SCT035 BKN100 FM171700 15006KT P6SM BKN070

Route Map

Planning Resources

PALEO3,HTO,WOONS1
OOD J42 RBV J222 JFK
SWANN3 DQO DAVYS J42 LAURN J222 JFK J225 NEWES INNDY2 CCC TELLE KENEE WOBUR EMMEL FIX 17
DCT SWANN DCT OOD J42 RBV J222 JFK KRANN3
ODD DAVYS BRAND RBV LAURN SANTT PACER HFD PUT
Route:
OFP Layout:
Units:
Detailed Navlog:
ETOPS Planning:
Plan Stepclimbs:
Runway Analysis:
Include NOTAMS:
FIR NOTAMS:
Flight Maps:

Return Flights

MET764
Airbus A321-232
2100 GMT
MET5690
Embraer ERJ-170LR
0200 GMT
MET5692
Embraer ERJ-170LR
1330 GMT
MET5764
Embraer ERJ-170LR
2200 GMT

Popularity

Hub Current Bids PiReps this month Total PiReps
KMCI 0 0 6
KLAX 0 0 2
KBOS 0 0 2